Aviation Digital Data Service (ADDS)

Output produced by METARs form (1757 UTC 24 March 2017)
found at http://www.aviationweather.gov/adds/metars/
 
KLGA 241722Z 2418/2518 20013G25KT P6SM OVC080 
     FM241900 21013G25KT P6SM BKN040 
     FM242300 23010G17KT P6SM BKN040 
     FM250300 23008KT P6SM SCT040 BKN080 
     FM251400 28008KT 6SM BR OVC050 
     FM251600 32007KT 6SM BR OVC015